createdAt,value
2022-12-11T00:01:17.103Z,80.33
2022-12-11T00:03:48.143Z,80.53
2022-12-11T00:06:19.187Z,80.14
2022-12-11T00:08:48.060Z,80.42
2022-12-11T00:11:17.221Z,80.41
2022-12-11T00:13:45.374Z,80.44
2022-12-11T00:16:13.579Z,80.18
2022-12-11T00:18:41.643Z,80.59
2022-12-11T00:21:13.741Z,80.65
2022-12-11T00:23:42.551Z,80.54
2022-12-11T00:26:14.604Z,80.72
2022-12-11T00:28:44.236Z,80.63
2022-12-11T00:31:18.880Z,80.83
2022-12-11T00:33:50.547Z,80.85
2022-12-11T00:36:25.338Z,81.33
2022-12-11T00:38:54.414Z,81.10
2022-12-11T00:41:23.060Z,81.02
2022-12-11T00:43:51.500Z,80.78
2022-12-11T00:46:19.720Z,80.95
2022-12-11T00:48:50.060Z,80.97
2022-12-11T00:51:18.309Z,81.25
2022-12-11T00:53:46.455Z,80.83
2022-12-11T00:56:20.094Z,81.11
2022-12-11T00:58:49.444Z,81.02
2022-12-11T01:01:24.581Z,81.13
2022-12-11T01:03:54.361Z,80.97
2022-12-11T01:06:25.344Z,80.68
2022-12-11T01:09:13.810Z,80.77
2022-12-11T01:11:43.464Z,80.72
2022-12-11T01:14:12.752Z,81.16
2022-12-11T01:16:40.876Z,81.10
2022-12-11T01:19:09.192Z,81.15
2022-12-11T01:21:37.226Z,80.84
2022-12-11T01:24:05.799Z,80.81
2022-12-11T01:26:33.904Z,80.82
2022-12-11T01:29:02.004Z,80.77
2022-12-11T01:31:30.176Z,80.73
2022-12-11T01:33:58.249Z,80.98
2022-12-11T01:36:26.260Z,80.83
2022-12-11T01:38:54.634Z,80.89
2022-12-11T01:41:22.919Z,80.79
2022-12-11T01:44:26.980Z,80.75
2022-12-11T01:46:55.118Z,80.97
2022-12-11T01:49:27.646Z,80.88
2022-12-11T01:52:10.726Z,80.89
2022-12-11T01:54:39.150Z,80.88
2022-12-11T01:57:09.567Z,80.75
2022-12-11T01:59:41.446Z,80.49
2022-12-11T02:02:12.549Z,80.61
2022-12-11T02:04:43.209Z,80.61
2022-12-11T02:07:11.284Z,80.79
2022-12-11T02:09:42.716Z,80.24
2022-12-11T02:12:30.843Z,80.57
2022-12-11T02:15:07.856Z,80.56
2022-12-11T02:17:44.223Z,80.48
2022-12-11T02:20:30.361Z,80.44
2022-12-11T02:23:13.393Z,80.36
2022-12-11T02:25:54.415Z,80.48
2022-12-11T02:28:32.111Z,80.84
2022-12-11T02:31:13.151Z,80.82
2022-12-11T02:33:48.751Z,80.93
2022-12-11T02:36:20.830Z,80.80
2022-12-11T02:38:52.084Z,80.80
2022-12-11T02:41:22.918Z,81.15
2022-12-11T02:43:52.686Z,81.06
2022-12-11T02:46:22.407Z,81.40
2022-12-11T02:48:52.266Z,81.45
2022-12-11T02:51:27.153Z,81.21
2022-12-11T02:53:58.521Z,81.58
2022-12-11T02:56:36.727Z,81.52
2022-12-11T02:59:15.702Z,81.50
2022-12-11T03:01:44.186Z,81.66
2022-12-11T03:04:12.330Z,81.43
2022-12-11T03:06:46.729Z,81.87
2022-12-11T03:09:14.997Z,81.45
2022-12-11T03:11:43.010Z,81.57
2022-12-11T03:14:11.601Z,81.48
2022-12-11T03:16:46.579Z,81.34
2022-12-11T03:19:28.140Z,81.42
2022-12-11T03:22:16.701Z,81.64
2022-12-11T03:25:08.776Z,81.61
2022-12-11T03:27:41.630Z,81.65
2022-12-11T03:30:19.154Z,81.98
2022-12-11T03:32:53.319Z,81.73
2022-12-11T03:35:28.506Z,81.65
2022-12-11T03:38:00.741Z,81.52
2022-12-11T03:40:33.393Z,81.74
2022-12-11T03:43:03.326Z,81.70
2022-12-11T03:45:32.936Z,81.74
2022-12-11T03:48:03.046Z,81.84
2022-12-11T03:50:33.110Z,81.69
2022-12-11T03:53:03.404Z,81.82
2022-12-11T03:55:33.917Z,81.80
2022-12-11T03:58:02.243Z,81.79
2022-12-11T04:00:30.424Z,82.01
2022-12-11T04:03:14.533Z,82.07
2022-12-11T04:05:49.237Z,82.08
2022-12-11T04:08:19.028Z,81.93
2022-12-11T04:10:47.542Z,81.82
2022-12-11T04:13:15.593Z,81.98
2022-12-11T04:15:43.710Z,81.95
2022-12-11T04:18:30.446Z,82.33
2022-12-11T04:21:17.056Z,82.47
2022-12-11T04:24:03.785Z,82.62
2022-12-11T04:26:31.836Z,82.43
2022-12-11T04:28:59.858Z,82.24
2022-12-11T04:31:30.139Z,82.34
2022-12-11T04:33:58.318Z,82.36
2022-12-11T04:36:26.410Z,82.44
2022-12-11T04:38:54.435Z,82.55
2022-12-11T04:41:22.459Z,82.58
2022-12-11T04:43:50.481Z,82.60
2022-12-11T04:46:21.457Z,82.33
2022-12-11T04:48:56.810Z,82.44
2022-12-11T04:51:26.831Z,82.55
2022-12-11T04:53:55.390Z,82.81
2022-12-11T04:56:23.598Z,82.77
2022-12-11T04:58:51.621Z,83.27
2022-12-11T05:01:22.989Z,83.06
2022-12-11T05:03:51.452Z,82.87
2022-12-11T05:06:19.518Z,83.14
2022-12-11T05:08:47.693Z,83.43
2022-12-11T05:11:16.318Z,83.37
2022-12-11T05:13:45.585Z,83.35
2022-12-11T05:16:16.942Z,83.22
2022-12-11T05:18:45.176Z,83.10
2022-12-11T05:21:14.892Z,83.04
2022-12-11T05:23:43.193Z,83.26
2022-12-11T05:26:17.198Z,83.46
2022-12-11T05:28:46.434Z,83.39
2022-12-11T05:31:17.918Z,83.74
2022-12-11T05:33:47.938Z,83.54
2022-12-11T05:36:31.825Z,83.40
2022-12-11T05:39:01.125Z,83.31
2022-12-11T05:41:32.661Z,83.44
2022-12-11T05:44:00.893Z,83.42
2022-12-11T05:46:30.985Z,83.63
2022-12-11T05:49:01.312Z,83.39
2022-12-11T05:51:30.397Z,83.42
2022-12-11T05:53:58.637Z,83.30
2022-12-11T05:56:29.719Z,83.42
2022-12-11T05:58:59.412Z,83.54
2022-12-11T06:01:36.837Z,83.74
2022-12-11T06:04:06.881Z,83.69
2022-12-11T06:06:35.080Z,83.78
2022-12-11T06:09:04.722Z,83.33
2022-12-11T06:11:34.117Z,83.39
2022-12-11T06:14:03.744Z,83.49
2022-12-11T06:16:32.504Z,83.49
2022-12-11T06:19:00.657Z,83.63
2022-12-11T06:21:31.825Z,83.54
2022-12-11T06:24:02.822Z,83.72
2022-12-11T06:26:32.223Z,83.79
2022-12-11T06:29:00.355Z,83.83
2022-12-11T06:31:28.468Z,83.84
2022-12-11T06:33:56.595Z,83.82
2022-12-11T06:36:25.320Z,83.83
2022-12-11T06:38:55.489Z,83.92
2022-12-11T06:41:23.560Z,83.96
2022-12-11T06:43:51.659Z,83.84
2022-12-11T06:46:20.906Z,83.82
2022-12-11T06:48:49.821Z,83.77
2022-12-11T06:51:21.696Z,83.94
2022-12-11T06:53:54.428Z,83.78
2022-12-11T06:56:23.810Z,83.67
2022-12-11T06:58:52.483Z,83.64
2022-12-11T07:01:24.924Z,83.49
2022-12-11T07:03:58.647Z,83.51
2022-12-11T07:06:28.811Z,83.40
2022-12-11T07:08:57.154Z,83.83
2022-12-11T07:11:25.209Z,83.71
2022-12-11T07:13:53.184Z,83.68
2022-12-11T07:16:21.701Z,83.74
2022-12-11T07:18:51.402Z,83.51
2022-12-11T07:21:20.990Z,83.93
2022-12-11T07:23:50.477Z,84.19
2022-12-11T07:26:21.073Z,84.30
2022-12-11T07:28:49.470Z,84.15
2022-12-11T07:31:24.052Z,84.11
2022-12-11T07:34:05.414Z,84.07
2022-12-11T07:36:34.575Z,84.00
2022-12-11T07:39:02.634Z,84.04
2022-12-11T07:41:31.937Z,84.35
2022-12-11T07:44:01.472Z,84.80
2022-12-11T07:46:32.222Z,84.88
2022-12-11T07:49:01.095Z,84.51
2022-12-11T07:51:31.718Z,84.92
2022-12-11T07:54:13.084Z,85.84
2022-12-11T07:56:43.892Z,86.16
2022-12-11T07:59:12.813Z,86.27
2022-12-11T08:01:42.737Z,86.27
2022-12-11T08:04:15.607Z,85.87
2022-12-11T08:06:43.919Z,86.09
2022-12-11T08:09:20.936Z,86.25
2022-12-11T08:11:50.961Z,86.08
2022-12-11T08:14:19.693Z,86.03
2022-12-11T08:16:49.049Z,86.01
2022-12-11T08:19:18.065Z,85.56
2022-12-11T08:21:46.956Z,85.62
2022-12-11T08:24:20.354Z,85.70
2022-12-11T08:26:49.200Z,85.86
2022-12-11T08:29:17.659Z,85.74
2022-12-11T08:31:45.707Z,85.77
2022-12-11T08:34:14.371Z,85.54
2022-12-11T08:36:42.718Z,85.53
2022-12-11T08:39:10.725Z,85.56
2022-12-11T08:41:38.894Z,85.64
2022-12-11T08:44:16.275Z,85.48
2022-12-11T08:46:46.807Z,85.61
2022-12-11T08:49:14.896Z,85.40
2022-12-11T08:51:42.954Z,85.36
2022-12-11T08:54:11.846Z,85.60
2022-12-11T08:56:39.886Z,85.78
2022-12-11T08:59:08.045Z,85.77
2022-12-11T09:01:36.180Z,85.51
2022-12-11T09:04:04.330Z,85.62
2022-12-11T09:06:33.221Z,85.60
2022-12-11T09:09:01.772Z,85.06
2022-12-11T09:11:33.434Z,85.18
2022-12-11T09:14:07.216Z,85.10
2022-12-11T09:16:40.745Z,85.42
2022-12-11T09:19:14.269Z,85.46
2022-12-11T09:21:43.939Z,85.54
2022-12-11T09:24:13.399Z,85.72
2022-12-11T09:26:41.889Z,85.22
2022-12-11T09:29:12.361Z,85.13
2022-12-11T09:31:40.945Z,85.07
2022-12-11T09:34:12.736Z,85.28
2022-12-11T09:36:41.749Z,85.34
2022-12-11T09:39:12.705Z,85.59
2022-12-11T09:41:48.003Z,85.46
2022-12-11T09:44:37.689Z,85.09
2022-12-11T09:47:20.810Z,84.82
2022-12-11T09:49:58.252Z,84.76
2022-12-11T09:52:32.723Z,84.93
2022-12-11T09:55:12.148Z,85.06
2022-12-11T09:57:46.804Z,84.92
2022-12-11T10:00:27.621Z,84.93
2022-12-11T10:03:20.434Z,84.73
2022-12-11T10:06:33.070Z,84.77
2022-12-11T10:09:06.429Z,84.81
2022-12-11T10:11:56.871Z,84.58
2022-12-11T10:14:59.531Z,84.14
2022-12-11T10:17:37.176Z,84.06
2022-12-11T10:20:35.344Z,84.16
2022-12-11T10:23:08.102Z,84.41
2022-12-11T10:25:40.408Z,84.79
2022-12-11T10:28:17.439Z,84.82
2022-12-11T10:31:11.555Z,84.89
2022-12-11T10:33:42.274Z,84.35
2022-12-11T10:36:10.807Z,84.33
2022-12-11T10:38:43.614Z,84.37
2022-12-11T10:41:17.534Z,84.52
2022-12-11T10:43:48.539Z,84.59
2022-12-11T10:46:23.304Z,84.82
2022-12-11T10:48:57.102Z,84.75
2022-12-11T10:51:30.911Z,84.39
2022-12-11T10:54:31.509Z,84.16
2022-12-11T10:57:02.386Z,83.93
2022-12-11T10:59:47.719Z,84.24
2022-12-11T11:02:38.909Z,84.27
2022-12-11T11:05:29.765Z,84.00
2022-12-11T11:08:22.671Z,83.81
2022-12-11T11:10:57.047Z,83.65
2022-12-11T11:13:30.301Z,83.36
2022-12-11T11:16:12.611Z,83.52
2022-12-11T11:18:43.541Z,83.81
2022-12-11T11:21:19.998Z,82.90
2022-12-11T11:23:53.277Z,82.64
2022-12-11T11:26:23.229Z,82.58
2022-12-11T11:28:55.748Z,82.88
2022-12-11T11:31:35.505Z,82.70
2022-12-11T11:34:08.436Z,83.34
2022-12-11T11:36:38.589Z,83.05
2022-12-11T11:39:20.613Z,82.98
2022-12-11T11:41:57.501Z,83.32
2022-12-11T11:44:34.879Z,83.01
2022-12-11T11:47:14.134Z,82.80
2022-12-11T11:49:56.008Z,82.74
2022-12-11T11:52:45.600Z,82.51
2022-12-11T11:55:35.586Z,82.69
2022-12-11T11:58:23.134Z,82.57
2022-12-11T12:00:54.861Z,82.53
2022-12-11T12:03:25.492Z,82.33
2022-12-11T12:06:15.115Z,82.65
2022-12-11T12:09:16.702Z,82.41
2022-12-11T12:12:03.637Z,82.47
2022-12-11T12:15:13.998Z,82.37
2022-12-11T12:17:56.321Z,81.85
2022-12-11T12:20:36.770Z,81.55
2022-12-11T12:23:37.311Z,81.66
2022-12-11T12:26:21.675Z,81.95
2022-12-11T12:28:57.959Z,82.15
2022-12-11T12:31:28.930Z,81.99
2022-12-11T12:34:15.125Z,82.40
2022-12-11T12:37:29.115Z,82.19
2022-12-11T12:40:14.888Z,82.12
2022-12-11T12:43:01.192Z,81.99
2022-12-11T12:45:53.440Z,81.54
2022-12-11T12:48:25.079Z,81.39
2022-12-11T12:50:53.579Z,81.17
2022-12-11T12:53:26.031Z,81.21
2022-12-11T12:55:55.232Z,81.44
2022-12-11T12:58:28.721Z,81.48
2022-12-11T13:01:17.626Z,81.52
2022-12-11T13:04:02.481Z,81.33
2022-12-11T13:06:33.090Z,81.31
2022-12-11T13:09:30.493Z,81.14
2022-12-11T13:11:58.557Z,81.20
2022-12-11T13:14:32.721Z,81.45
2022-12-11T13:17:21.914Z,81.61
2022-12-11T13:19:57.636Z,81.65
2022-12-11T13:22:25.708Z,81.41
2022-12-11T13:24:53.696Z,81.52
2022-12-11T13:27:43.794Z,81.32
2022-12-11T13:30:14.552Z,81.11
2022-12-11T13:33:01.035Z,81.14
2022-12-11T13:35:30.663Z,81.10
2022-12-11T13:38:06.386Z,81.05
2022-12-11T13:40:40.372Z,81.30
2022-12-11T13:43:25.277Z,81.01
2022-12-11T13:45:57.900Z,80.98
2022-12-11T13:48:39.458Z,80.96
2022-12-11T13:51:07.520Z,80.95
2022-12-11T13:53:35.530Z,80.46
2022-12-11T13:56:06.812Z,80.48
2022-12-11T13:58:38.157Z,80.49
2022-12-11T14:01:14.686Z,80.58
2022-12-11T14:03:55.601Z,80.59
2022-12-11T14:06:26.450Z,80.73
2022-12-11T14:08:57.981Z,80.69
2022-12-11T14:11:30.203Z,81.13
2022-12-11T14:14:01.495Z,80.98
2022-12-11T14:16:30.689Z,80.78
2022-12-11T14:19:05.438Z,80.82
2022-12-11T14:21:34.241Z,80.86
2022-12-11T14:24:05.309Z,81.08
2022-12-11T14:26:38.024Z,80.91
2022-12-11T14:29:07.300Z,80.95
2022-12-11T14:31:41.099Z,80.90
2022-12-11T14:34:16.581Z,80.63
2022-12-11T14:36:48.146Z,80.52
2022-12-11T14:39:36.753Z,80.57
2022-12-11T14:42:10.812Z,80.80
2022-12-11T14:45:16.259Z,80.93
2022-12-11T14:47:45.092Z,81.01
2022-12-11T14:50:28.459Z,80.72
2022-12-11T14:53:02.887Z,80.69
2022-12-11T14:55:36.054Z,80.44
2022-12-11T14:58:29.231Z,79.93
2022-12-11T15:00:57.219Z,80.17
2022-12-11T15:03:33.671Z,80.43
2022-12-11T15:06:03.528Z,80.22
2022-12-11T15:08:35.301Z,80.14
2022-12-11T15:11:03.406Z,80.34
2022-12-11T15:13:33.266Z,80.46
2022-12-11T15:16:02.023Z,80.29
2022-12-11T15:18:33.878Z,80.23
2022-12-11T15:21:04.292Z,80.00
2022-12-11T15:23:34.836Z,79.99
2022-12-11T15:26:03.263Z,80.14
2022-12-11T15:28:37.373Z,80.43
2022-12-11T15:31:25.544Z,80.51
2022-12-11T15:33:54.026Z,80.58
2022-12-11T15:36:32.517Z,80.42
2022-12-11T15:39:02.948Z,80.28
2022-12-11T15:41:34.818Z,80.34
2022-12-11T15:44:04.660Z,80.58
2022-12-11T15:46:36.685Z,80.57
2022-12-11T15:49:12.972Z,80.46
2022-12-11T15:51:43.357Z,80.46
2022-12-11T15:54:11.696Z,80.52
2022-12-11T15:56:40.148Z,80.46
2022-12-11T15:59:08.228Z,80.36
2022-12-11T16:01:36.447Z,80.32
2022-12-11T16:04:05.337Z,80.48
2022-12-11T16:06:34.493Z,80.59
2022-12-11T16:09:05.219Z,80.67
2022-12-11T16:11:33.327Z,80.67
2022-12-11T16:14:04.524Z,80.68
2022-12-11T16:16:32.641Z,80.65
2022-12-11T16:19:00.985Z,80.60
2022-12-11T16:21:29.046Z,80.73
2022-12-11T16:23:57.111Z,80.78
2022-12-11T16:26:25.612Z,81.10
2022-12-11T16:28:53.667Z,81.10
2022-12-11T16:31:21.978Z,81.09
2022-12-11T16:33:50.115Z,80.98
2022-12-11T16:36:19.706Z,80.88
2022-12-11T16:38:53.586Z,80.99
2022-12-11T16:41:23.381Z,80.90
2022-12-11T16:43:51.664Z,81.24
2022-12-11T16:46:21.349Z,81.19
2022-12-11T16:48:50.055Z,81.20
2022-12-11T16:51:18.153Z,81.25
2022-12-11T16:53:46.791Z,80.99
2022-12-11T16:56:14.885Z,80.92
2022-12-11T16:58:43.063Z,80.81
2022-12-11T17:01:15.492Z,80.93
2022-12-11T17:03:44.577Z,81.05
2022-12-11T17:06:17.665Z,81.26
2022-12-11T17:08:46.913Z,81.44
2022-12-11T17:11:18.682Z,81.45
2022-12-11T17:13:46.772Z,81.21
2022-12-11T17:16:16.746Z,81.05
2022-12-11T17:18:44.945Z,81.32
2022-12-11T17:21:15.717Z,81.44
2022-12-11T17:23:45.241Z,81.28
2022-12-11T17:26:13.689Z,81.39
2022-12-11T17:28:41.727Z,81.27
2022-12-11T17:31:13.674Z,81.32
2022-12-11T17:33:42.495Z,81.18
2022-12-11T17:36:14.087Z,80.94
2022-12-11T17:38:42.172Z,81.13
2022-12-11T17:41:19.824Z,81.28
2022-12-11T17:43:50.795Z,81.26
2022-12-11T17:46:20.154Z,81.41
2022-12-11T17:48:49.309Z,81.46
2022-12-11T17:51:28.159Z,81.47
2022-12-11T17:54:05.327Z,81.45
2022-12-11T17:56:35.024Z,81.06
2022-12-11T17:59:03.412Z,81.22
2022-12-11T18:01:31.564Z,81.42
2022-12-11T18:04:01.994Z,81.29
2022-12-11T18:06:30.886Z,81.39
2022-12-11T18:08:58.896Z,81.41
2022-12-11T18:11:27.015Z,81.46
2022-12-11T18:13:55.498Z,81.44
2022-12-11T18:16:32.608Z,81.26
2022-12-11T18:19:01.809Z,81.14
2022-12-11T18:21:33.881Z,81.19
2022-12-11T18:24:03.016Z,81.49
2022-12-11T18:26:31.436Z,81.41
2022-12-11T18:28:59.487Z,81.79
2022-12-11T18:31:27.495Z,81.81
2022-12-11T18:33:56.355Z,81.65
2022-12-11T18:36:24.396Z,81.74
2022-12-11T18:38:52.576Z,81.86
2022-12-11T18:41:20.716Z,81.95
2022-12-11T18:43:48.911Z,82.05
2022-12-11T18:46:19.137Z,82.11
2022-12-11T18:48:48.546Z,82.16
2022-12-11T18:51:22.689Z,82.07
2022-12-11T18:53:51.705Z,82.13
2022-12-11T18:56:21.133Z,82.41
2022-12-11T18:58:52.255Z,82.47
2022-12-11T19:01:29.122Z,83.45
2022-12-11T19:04:03.583Z,83.52
2022-12-11T19:06:35.784Z,83.69
2022-12-11T19:09:06.064Z,83.32
2022-12-11T19:11:35.652Z,83.27
2022-12-11T19:14:05.354Z,83.39
2022-12-11T19:16:37.518Z,83.36
2022-12-11T19:19:12.659Z,83.28
2022-12-11T19:21:41.701Z,83.42
2022-12-11T19:24:15.305Z,83.41
2022-12-11T19:26:43.517Z,83.58
2022-12-11T19:29:20.310Z,83.47
2022-12-11T19:31:48.553Z,83.44
2022-12-11T19:34:17.052Z,83.26
2022-12-11T19:36:45.238Z,83.55
2022-12-11T19:39:14.629Z,83.92
2022-12-11T19:41:43.001Z,84.16
2022-12-11T19:44:12.087Z,84.05
2022-12-11T19:46:40.444Z,83.92
2022-12-11T19:49:08.594Z,83.80
2022-12-11T19:51:38.986Z,83.77
2022-12-11T19:54:09.986Z,83.24
2022-12-11T19:56:38.420Z,83.80
2022-12-11T19:59:09.065Z,83.74
2022-12-11T20:01:38.304Z,83.67
2022-12-11T20:04:12.876Z,83.52
2022-12-11T20:06:43.443Z,83.36
2022-12-11T20:09:13.289Z,83.13
2022-12-11T20:11:43.924Z,83.14
2022-12-11T20:14:26.405Z,83.01
2022-12-11T20:17:13.759Z,83.00
2022-12-11T20:19:43.284Z,83.05
2022-12-11T20:22:11.901Z,83.03
2022-12-11T20:24:40.746Z,82.64
2022-12-11T20:27:10.236Z,82.43
2022-12-11T20:29:39.113Z,82.27
2022-12-11T20:32:07.752Z,82.03
2022-12-11T20:34:35.921Z,81.96
2022-12-11T20:37:04.019Z,81.97
2022-12-11T20:39:32.182Z,82.01
2022-12-11T20:42:01.317Z,81.52
2022-12-11T20:44:29.365Z,81.56
2022-12-11T20:46:57.450Z,81.77
2022-12-11T20:49:25.621Z,81.87
2022-12-11T20:51:54.080Z,81.90
2022-12-11T20:54:22.111Z,82.03
2022-12-11T20:56:51.524Z,82.05
2022-12-11T20:59:19.634Z,82.05
2022-12-11T21:01:47.711Z,82.05
2022-12-11T21:04:15.869Z,82.50
2022-12-11T21:06:43.912Z,82.68
2022-12-11T21:09:19.511Z,82.68
2022-12-11T21:11:48.384Z,82.51
2022-12-11T21:14:17.925Z,82.30
2022-12-11T21:16:46.676Z,82.42
2022-12-11T21:19:17.800Z,82.62
2022-12-11T21:21:46.436Z,82.68
2022-12-11T21:24:18.795Z,82.82
2022-12-11T21:26:48.123Z,82.84
2022-12-11T21:29:17.001Z,82.70
2022-12-11T21:31:45.317Z,82.52
2022-12-11T21:34:14.257Z,82.32
2022-12-11T21:36:42.655Z,82.36
2022-12-11T21:39:12.452Z,82.49
2022-12-11T21:41:41.877Z,82.36
2022-12-11T21:46:59.631Z,82.50
2022-12-11T21:49:27.748Z,82.25
2022-12-11T21:51:56.157Z,82.26
2022-12-11T21:54:24.254Z,82.26
2022-12-11T21:56:52.318Z,82.36
2022-12-11T21:59:20.644Z,82.72
2022-12-11T22:01:48.636Z,82.71
2022-12-11T22:04:16.942Z,82.55
2022-12-11T22:06:47.362Z,82.71
2022-12-11T22:09:17.907Z,82.71
2022-12-11T22:11:46.963Z,82.87
2022-12-11T22:14:17.103Z,82.80
2022-12-11T22:16:45.814Z,82.97
2022-12-11T22:19:14.040Z,82.79
2022-12-11T22:21:42.574Z,83.11
2022-12-11T22:24:10.641Z,82.80
2022-12-11T22:26:39.208Z,82.64
2022-12-11T22:29:07.258Z,82.54
2022-12-11T22:31:35.312Z,82.44
2022-12-11T22:34:03.334Z,82.25
2022-12-11T22:36:31.367Z,82.20
2022-12-11T22:39:00.581Z,82.38
2022-12-11T22:41:31.428Z,82.87
2022-12-11T22:44:00.011Z,82.60
2022-12-11T22:46:30.196Z,82.54
2022-12-11T22:48:59.000Z,82.28
2022-12-11T22:51:27.189Z,82.11
2022-12-11T22:53:55.243Z,82.25
2022-12-11T22:56:23.332Z,82.07
2022-12-11T22:58:51.429Z,82.10
2022-12-11T23:01:24.901Z,81.72
2022-12-11T23:03:53.403Z,81.38
2022-12-11T23:06:25.042Z,81.26
2022-12-11T23:08:56.983Z,81.30
2022-12-11T23:11:31.417Z,81.27
2022-12-11T23:13:59.451Z,81.29
2022-12-11T23:16:27.691Z,81.40
2022-12-11T23:18:57.697Z,81.26
2022-12-11T23:21:28.095Z,81.37
2022-12-11T23:23:57.849Z,81.62
2022-12-11T23:26:27.496Z,81.47
2022-12-11T23:28:56.996Z,81.59
2022-12-11T23:31:25.893Z,81.61
2022-12-11T23:33:54.380Z,81.47
2022-12-11T23:36:23.072Z,81.65
2022-12-11T23:38:54.803Z,81.71
2022-12-11T23:41:23.730Z,81.74
2022-12-11T23:43:52.427Z,81.87
2022-12-11T23:46:22.946Z,81.82
2022-12-11T23:48:52.455Z,81.64
2022-12-11T23:51:23.191Z,81.69
2022-12-11T23:53:52.538Z,81.86
2022-12-11T23:56:25.024Z,81.78
2022-12-11T23:58:53.846Z,81.79
